sensor_id;sensor_type;location;lat;lon;timestamp;P1;durP1;ratioP1;P2;durP2;ratioP2
26484;SDS011;18083;50.560;7.262;2023-03-01T00:01:19;23.67;;;12.93;;
26484;SDS011;18083;50.560;7.262;2023-03-01T00:03:47;24.17;;;13.57;;
26484;SDS011;18083;50.560;7.262;2023-03-01T00:06:14;22.50;;;14.03;;
26484;SDS011;18083;50.560;7.262;2023-03-01T00:08:41;24.60;;;13.27;;
26484;SDS011;18083;50.560;7.262;2023-03-01T00:11:13;24.60;;;12.33;;
26484;SDS011;18083;50.560;7.262;2023-03-01T00:13:41;18.23;;;11.40;;
26484;SDS011;18083;50.560;7.262;2023-03-01T00:16:17;21.10;;;12.53;;
26484;SDS011;18083;50.560;7.262;2023-03-01T00:18:40;22.00;;;13.50;;
26484;SDS011;18083;50.560;7.262;2023-03-01T00:21:07;17.97;;;11.90;;
26484;SDS011;18083;50.560;7.262;2023-03-01T00:23:35;24.03;;;12.97;;
26484;SDS011;18083;50.560;7.262;2023-03-01T00:26:05;26.03;;;13.33;;
26484;SDS011;18083;50.560;7.262;2023-03-01T00:28:32;19.10;;;11.93;;
26484;SDS011;18083;50.560;7.262;2023-03-01T00:31:03;17.90;;;11.40;;
26484;SDS011;18083;50.560;7.262;2023-03-01T00:33:30;20.07;;;12.07;;
26484;SDS011;18083;50.560;7.262;2023-03-01T00:35:58;26.63;;;12.43;;
26484;SDS011;18083;50.560;7.262;2023-03-01T00:38:26;17.93;;;11.33;;
26484;SDS011;18083;50.560;7.262;2023-03-01T00:40:53;17.53;;;12.10;;
26484;SDS011;18083;50.560;7.262;2023-03-01T00:43:20;18.63;;;12.60;;
26484;SDS011;18083;50.560;7.262;2023-03-01T00:45:48;22.13;;;12.73;;
26484;SDS011;18083;50.560;7.262;2023-03-01T00:48:15;20.03;;;12.83;;
26484;SDS011;18083;50.560;7.262;2023-03-01T00:50:43;21.20;;;12.30;;
26484;SDS011;18083;50.560;7.262;2023-03-01T00:53:10;20.43;;;12.90;;
26484;SDS011;18083;50.560;7.262;2023-03-01T00:55:37;20.73;;;12.00;;
26484;SDS011;18083;50.560;7.262;2023-03-01T00:58:04;21.70;;;11.27;;
26484;SDS011;18083;50.560;7.262;2023-03-01T01:00:32;16.03;;;11.17;;
26484;SDS011;18083;50.560;7.262;2023-03-01T01:02:59;21.57;;;12.80;;
26484;SDS011;18083;50.560;7.262;2023-03-01T01:05:27;26.37;;;12.63;;
26484;SDS011;18083;50.560;7.262;2023-03-01T01:07:54;24.27;;;12.80;;
26484;SDS011;18083;50.560;7.262;2023-03-01T01:10:21;20.47;;;12.07;;
26484;SDS011;18083;50.560;7.262;2023-03-01T01:12:49;21.53;;;11.27;;
26484;SDS011;18083;50.560;7.262;2023-03-01T01:15:16;23.07;;;12.67;;
26484;SDS011;18083;50.560;7.262;2023-03-01T01:17:43;21.23;;;12.60;;
26484;SDS011;18083;50.560;7.262;2023-03-01T01:20:11;21.67;;;12.67;;
26484;SDS011;18083;50.560;7.262;2023-03-01T01:22:38;22.40;;;12.13;;
26484;SDS011;18083;50.560;7.262;2023-03-01T01:25:06;18.67;;;12.70;;
26484;SDS011;18083;50.560;7.262;2023-03-01T01:27:33;16.90;;;10.23;;
26484;SDS011;18083;50.560;7.262;2023-03-01T01:30:00;21.17;;;12.40;;
26484;SDS011;18083;50.560;7.262;2023-03-01T01:32:28;18.97;;;11.30;;
26484;SDS011;18083;50.560;7.262;2023-03-01T01:34:55;19.40;;;11.53;;
26484;SDS011;18083;50.560;7.262;2023-03-01T01:37:22;21.57;;;11.60;;
26484;SDS011;18083;50.560;7.262;2023-03-01T01:39:51;20.40;;;12.00;;
26484;SDS011;18083;50.560;7.262;2023-03-01T01:42:19;16.93;;;10.97;;
26484;SDS011;18083;50.560;7.262;2023-03-01T01:44:46;24.07;;;12.33;;
26484;SDS011;18083;50.560;7.262;2023-03-01T01:47:18;27.73;;;13.90;;
26484;SDS011;18083;50.560;7.262;2023-03-01T01:57:24;21.67;;;12.53;;
26484;SDS011;18083;50.560;7.262;2023-03-01T01:59:52;21.60;;;13.07;;
26484;SDS011;18083;50.560;7.262;2023-03-01T02:02:20;24.23;;;12.97;;
26484;SDS011;18083;50.560;7.262;2023-03-01T02:04:48;20.10;;;11.63;;
26484;SDS011;18083;50.560;7.262;2023-03-01T02:07:17;23.23;;;13.37;;
26484;SDS011;18083;50.560;7.262;2023-03-01T02:09:46;22.33;;;12.70;;
26484;SDS011;18083;50.560;7.262;2023-03-01T02:12:17;19.97;;;11.40;;
26484;SDS011;18083;50.560;7.262;2023-03-01T02:14:45;23.23;;;13.10;;
26484;SDS011;18083;50.560;7.262;2023-03-01T02:17:12;17.47;;;10.80;;
26484;SDS011;18083;50.560;7.262;2023-03-01T02:22:20;19.53;;;11.30;;
26484;SDS011;18083;50.560;7.262;2023-03-01T02:27:34;19.03;;;11.07;;
26484;SDS011;18083;50.560;7.262;2023-03-01T02:30:02;19.63;;;10.97;;
26484;SDS011;18083;50.560;7.262;2023-03-01T02:32:30;16.77;;;9.90;;
26484;SDS011;18083;50.560;7.262;2023-03-01T02:34:58;21.70;;;12.03;;
26484;SDS011;18083;50.560;7.262;2023-03-01T02:37:25;17.47;;;10.73;;
26484;SDS011;18083;50.560;7.262;2023-03-01T02:39:55;18.03;;;10.43;;
26484;SDS011;18083;50.560;7.262;2023-03-01T02:42:26;19.67;;;10.47;;
26484;SDS011;18083;50.560;7.262;2023-03-01T02:47:56;21.23;;;10.73;;
26484;SDS011;18083;50.560;7.262;2023-03-01T02:53:07;23.83;;;11.20;;
26484;SDS011;18083;50.560;7.262;2023-03-01T02:55:33;18.97;;;11.17;;
26484;SDS011;18083;50.560;7.262;2023-03-01T02:58:01;17.80;;;11.37;;
26484;SDS011;18083;50.560;7.262;2023-03-01T03:00:33;14.70;;;10.83;;
26484;SDS011;18083;50.560;7.262;2023-03-01T03:03:00;20.63;;;11.50;;
26484;SDS011;18083;50.560;7.262;2023-03-01T03:05:28;17.43;;;10.43;;
26484;SDS011;18083;50.560;7.262;2023-03-01T03:07:56;17.20;;;10.53;;
26484;SDS011;18083;50.560;7.262;2023-03-01T03:10:28;20.33;;;11.53;;
26484;SDS011;18083;50.560;7.262;2023-03-01T03:12:58;20.53;;;11.87;;
26484;SDS011;18083;50.560;7.262;2023-03-01T03:15:21;20.43;;;10.90;;
26484;SDS011;18083;50.560;7.262;2023-03-01T03:17:49;20.37;;;11.73;;
26484;SDS011;18083;50.560;7.262;2023-03-01T03:20:18;23.33;;;12.13;;
26484;SDS011;18083;50.560;7.262;2023-03-01T03:22:49;19.97;;;11.63;;
26484;SDS011;18083;50.560;7.262;2023-03-01T03:25:17;17.30;;;10.70;;
26484;SDS011;18083;50.560;7.262;2023-03-01T03:27:46;19.47;;;11.70;;
26484;SDS011;18083;50.560;7.262;2023-03-01T03:30:15;22.17;;;11.67;;
26484;SDS011;18083;50.560;7.262;2023-03-01T03:32:43;21.47;;;10.80;;
26484;SDS011;18083;50.560;7.262;2023-03-01T03:35:24;16.37;;;10.37;;
26484;SDS011;18083;50.560;7.262;2023-03-01T03:37:48;18.23;;;10.50;;
26484;SDS011;18083;50.560;7.262;2023-03-01T03:40:33;17.83;;;10.90;;
26484;SDS011;18083;50.560;7.262;2023-03-01T03:43:02;15.80;;;10.47;;
26484;SDS011;18083;50.560;7.262;2023-03-01T03:45:29;16.57;;;9.87;;
26484;SDS011;18083;50.560;7.262;2023-03-01T03:48:01;15.57;;;9.37;;
26484;SDS011;18083;50.560;7.262;2023-03-01T03:50:29;16.30;;;9.90;;
26484;SDS011;18083;50.560;7.262;2023-03-01T03:52:57;16.33;;;9.50;;
26484;SDS011;18083;50.560;7.262;2023-03-01T03:55:24;19.27;;;9.83;;
26484;SDS011;18083;50.560;7.262;2023-03-01T03:57:53;19.20;;;10.33;;
26484;SDS011;18083;50.560;7.262;2023-03-01T04:00:21;15.10;;;9.20;;
26484;SDS011;18083;50.560;7.262;2023-03-01T04:02:50;15.27;;;9.73;;
26484;SDS011;18083;50.560;7.262;2023-03-01T04:05:18;15.00;;;9.70;;
26484;SDS011;18083;50.560;7.262;2023-03-01T04:07:45;18.07;;;10.03;;
26484;SDS011;18083;50.560;7.262;2023-03-01T04:10:14;14.90;;;9.57;;
26484;SDS011;18083;50.560;7.262;2023-03-01T04:12:42;15.40;;;10.30;;
26484;SDS011;18083;50.560;7.262;2023-03-01T04:15:10;16.80;;;9.77;;
26484;SDS011;18083;50.560;7.262;2023-03-01T04:17:44;20.47;;;10.03;;
26484;SDS011;18083;50.560;7.262;2023-03-01T04:20:20;16.87;;;10.23;;
26484;SDS011;18083;50.560;7.262;2023-03-01T04:22:53;15.63;;;9.97;;
26484;SDS011;18083;50.560;7.262;2023-03-01T04:25:22;14.20;;;9.63;;
26484;SDS011;18083;50.560;7.262;2023-03-01T04:27:49;16.67;;;9.70;;
26484;SDS011;18083;50.560;7.262;2023-03-01T04:30:16;17.87;;;10.70;;
26484;SDS011;18083;50.560;7.262;2023-03-01T04:32:44;19.67;;;10.80;;
26484;SDS011;18083;50.560;7.262;2023-03-01T04:35:11;18.07;;;11.17;;
26484;SDS011;18083;50.560;7.262;2023-03-01T04:37:38;19.63;;;10.63;;
26484;SDS011;18083;50.560;7.262;2023-03-01T04:40:08;16.30;;;11.17;;
26484;SDS011;18083;50.560;7.262;2023-03-01T04:42:37;20.87;;;10.53;;
26484;SDS011;18083;50.560;7.262;2023-03-01T04:45:04;13.27;;;10.13;;
26484;SDS011;18083;50.560;7.262;2023-03-01T04:47:34;22.43;;;12.00;;
26484;SDS011;18083;50.560;7.262;2023-03-01T04:50:03;15.07;;;10.73;;
26484;SDS011;18083;50.560;7.262;2023-03-01T04:52:30;20.67;;;10.50;;
26484;SDS011;18083;50.560;7.262;2023-03-01T04:54:57;19.10;;;11.43;;
26484;SDS011;18083;50.560;7.262;2023-03-01T04:57:25;23.07;;;12.07;;
26484;SDS011;18083;50.560;7.262;2023-03-01T04:59:52;19.77;;;11.37;;
26484;SDS011;18083;50.560;7.262;2023-03-01T05:02:19;17.30;;;11.20;;
26484;SDS011;18083;50.560;7.262;2023-03-01T05:04:47;23.60;;;11.60;;
26484;SDS011;18083;50.560;7.262;2023-03-01T05:07:14;18.43;;;11.07;;
26484;SDS011;18083;50.560;7.262;2023-03-01T05:09:43;22.53;;;11.40;;
26484;SDS011;18083;50.560;7.262;2023-03-01T05:12:10;21.23;;;10.73;;
26484;SDS011;18083;50.560;7.262;2023-03-01T05:14:38;22.07;;;11.80;;
26484;SDS011;18083;50.560;7.262;2023-03-01T05:17:05;19.77;;;12.20;;
26484;SDS011;18083;50.560;7.262;2023-03-01T05:19:33;21.30;;;12.07;;
26484;SDS011;18083;50.560;7.262;2023-03-01T05:22:00;21.50;;;9.97;;
26484;SDS011;18083;50.560;7.262;2023-03-01T05:24:28;21.10;;;11.13;;
26484;SDS011;18083;50.560;7.262;2023-03-01T05:26:56;22.03;;;11.43;;
26484;SDS011;18083;50.560;7.262;2023-03-01T05:29:24;25.60;;;13.13;;
26484;SDS011;18083;50.560;7.262;2023-03-01T05:31:58;20.53;;;11.47;;
26484;SDS011;18083;50.560;7.262;2023-03-01T05:34:23;28.83;;;12.17;;
26484;SDS011;18083;50.560;7.262;2023-03-01T05:36:52;28.60;;;11.23;;
26484;SDS011;18083;50.560;7.262;2023-03-01T05:39:20;23.37;;;11.33;;
26484;SDS011;18083;50.560;7.262;2023-03-01T05:41:52;19.93;;;11.40;;
26484;SDS011;18083;50.560;7.262;2023-03-01T05:44:17;23.23;;;12.90;;
26484;SDS011;18083;50.560;7.262;2023-03-01T05:46:44;20.27;;;12.03;;
26484;SDS011;18083;50.560;7.262;2023-03-01T05:49:12;18.00;;;11.07;;
26484;SDS011;18083;50.560;7.262;2023-03-01T05:51:42;20.27;;;11.70;;
26484;SDS011;18083;50.560;7.262;2023-03-01T05:54:10;21.07;;;10.40;;
26484;SDS011;18083;50.560;7.262;2023-03-01T05:56:37;23.33;;;12.23;;
26484;SDS011;18083;50.560;7.262;2023-03-01T05:59:04;18.37;;;11.33;;
26484;SDS011;18083;50.560;7.262;2023-03-01T06:01:32;24.37;;;10.97;;
26484;SDS011;18083;50.560;7.262;2023-03-01T06:04:00;24.57;;;11.83;;
26484;SDS011;18083;50.560;7.262;2023-03-01T06:06:27;24.60;;;11.37;;
26484;SDS011;18083;50.560;7.262;2023-03-01T06:08:55;19.57;;;10.47;;
26484;SDS011;18083;50.560;7.262;2023-03-01T06:11:22;20.07;;;10.57;;
26484;SDS011;18083;50.560;7.262;2023-03-01T06:13:50;22.83;;;11.77;;
26484;SDS011;18083;50.560;7.262;2023-03-01T06:16:17;22.53;;;11.33;;
26484;SDS011;18083;50.560;7.262;2023-03-01T06:18:44;24.40;;;12.00;;
26484;SDS011;18083;50.560;7.262;2023-03-01T06:21:12;20.57;;;11.23;;
26484;SDS011;18083;50.560;7.262;2023-03-01T06:23:45;19.70;;;10.77;;
26484;SDS011;18083;50.560;7.262;2023-03-01T06:26:15;27.03;;;15.23;;
26484;SDS011;18083;50.560;7.262;2023-03-01T06:28:43;26.37;;;17.27;;
26484;SDS011;18083;50.560;7.262;2023-03-01T06:31:12;42.57;;;22.37;;
26484;SDS011;18083;50.560;7.262;2023-03-01T06:33:39;35.60;;;19.40;;
26484;SDS011;18083;50.560;7.262;2023-03-01T06:36:07;38.57;;;20.27;;
26484;SDS011;18083;50.560;7.262;2023-03-01T06:41:38;39.77;;;18.20;;
26484;SDS011;18083;50.560;7.262;2023-03-01T06:44:06;31.23;;;18.70;;
26484;SDS011;18083;50.560;7.262;2023-03-01T06:46:33;30.60;;;18.67;;
26484;SDS011;18083;50.560;7.262;2023-03-01T06:49:00;28.77;;;15.50;;
26484;SDS011;18083;50.560;7.262;2023-03-01T06:51:29;46.20;;;17.97;;
26484;SDS011;18083;50.560;7.262;2023-03-01T06:53:57;29.93;;;14.20;;
26484;SDS011;18083;50.560;7.262;2023-03-01T06:56:24;34.83;;;13.50;;
26484;SDS011;18083;50.560;7.262;2023-03-01T06:58:51;23.03;;;11.17;;
26484;SDS011;18083;50.560;7.262;2023-03-01T07:01:19;27.10;;;11.97;;
26484;SDS011;18083;50.560;7.262;2023-03-01T07:03:46;22.63;;;12.53;;
26484;SDS011;18083;50.560;7.262;2023-03-01T07:06:13;23.87;;;13.57;;
26484;SDS011;18083;50.560;7.262;2023-03-01T07:08:41;24.53;;;13.37;;
26484;SDS011;18083;50.560;7.262;2023-03-01T07:11:08;59.13;;;21.30;;
26484;SDS011;18083;50.560;7.262;2023-03-01T07:13:35;136.33;;;61.57;;
26484;SDS011;18083;50.560;7.262;2023-03-01T07:16:03;65.80;;;36.10;;
26484;SDS011;18083;50.560;7.262;2023-03-01T07:18:30;56.43;;;28.20;;
26484;SDS011;18083;50.560;7.262;2023-03-01T07:20:57;46.23;;;28.07;;
26484;SDS011;18083;50.560;7.262;2023-03-01T07:23:25;33.50;;;20.00;;
26484;SDS011;18083;50.560;7.262;2023-03-01T07:25:52;48.80;;;20.13;;
26484;SDS011;18083;50.560;7.262;2023-03-01T07:28:24;31.93;;;17.80;;
26484;SDS011;18083;50.560;7.262;2023-03-01T07:30:50;25.67;;;15.67;;
26484;SDS011;18083;50.560;7.262;2023-03-01T07:33:18;29.13;;;16.07;;
26484;SDS011;18083;50.560;7.262;2023-03-01T07:35:45;36.07;;;16.03;;
26484;SDS011;18083;50.560;7.262;2023-03-01T07:38:12;25.60;;;15.60;;
26484;SDS011;18083;50.560;7.262;2023-03-01T07:40:40;30.77;;;15.90;;
26484;SDS011;18083;50.560;7.262;2023-03-01T07:43:07;26.23;;;13.50;;
26484;SDS011;18083;50.560;7.262;2023-03-01T07:45:34;23.30;;;13.47;;
26484;SDS011;18083;50.560;7.262;2023-03-01T07:48:02;25.30;;;14.07;;
26484;SDS011;18083;50.560;7.262;2023-03-01T07:50:29;25.23;;;13.63;;
26484;SDS011;18083;50.560;7.262;2023-03-01T07:52:57;21.27;;;12.43;;
26484;SDS011;18083;50.560;7.262;2023-03-01T07:55:24;28.07;;;14.17;;
26484;SDS011;18083;50.560;7.262;2023-03-01T07:57:51;32.97;;;15.07;;
26484;SDS011;18083;50.560;7.262;2023-03-01T08:00:19;22.47;;;13.53;;
26484;SDS011;18083;50.560;7.262;2023-03-01T08:02:46;20.37;;;13.37;;
26484;SDS011;18083;50.560;7.262;2023-03-01T08:05:14;23.47;;;12.73;;
26484;SDS011;18083;50.560;7.262;2023-03-01T08:07:41;23.47;;;13.53;;
26484;SDS011;18083;50.560;7.262;2023-03-01T08:10:08;20.97;;;11.67;;
26484;SDS011;18083;50.560;7.262;2023-03-01T08:12:36;17.60;;;12.40;;
26484;SDS011;18083;50.560;7.262;2023-03-01T08:15:04;24.53;;;12.87;;
26484;SDS011;18083;50.560;7.262;2023-03-01T08:17:31;22.73;;;11.77;;
26484;SDS011;18083;50.560;7.262;2023-03-01T08:19:58;22.53;;;12.93;;
26484;SDS011;18083;50.560;7.262;2023-03-01T08:22:26;20.10;;;12.40;;
26484;SDS011;18083;50.560;7.262;2023-03-01T08:24:53;19.20;;;12.17;;
26484;SDS011;18083;50.560;7.262;2023-03-01T08:27:22;18.97;;;12.73;;
26484;SDS011;18083;50.560;7.262;2023-03-01T08:29:49;22.00;;;12.90;;
26484;SDS011;18083;50.560;7.262;2023-03-01T08:32:16;22.77;;;14.10;;
26484;SDS011;18083;50.560;7.262;2023-03-01T08:34:46;24.13;;;13.10;;
26484;SDS011;18083;50.560;7.262;2023-03-01T08:37:12;16.37;;;11.10;;
26484;SDS011;18083;50.560;7.262;2023-03-01T08:39:40;18.33;;;12.87;;
26484;SDS011;18083;50.560;7.262;2023-03-01T08:42:07;22.20;;;12.23;;
26484;SDS011;18083;50.560;7.262;2023-03-01T08:44:34;23.63;;;13.07;;
26484;SDS011;18083;50.560;7.262;2023-03-01T08:47:02;24.13;;;14.43;;
26484;SDS011;18083;50.560;7.262;2023-03-01T08:49:31;23.30;;;15.07;;
26484;SDS011;18083;50.560;7.262;2023-03-01T08:51:58;21.70;;;14.03;;
26484;SDS011;18083;50.560;7.262;2023-03-01T08:54:26;27.27;;;14.90;;
26484;SDS011;18083;50.560;7.262;2023-03-01T08:56:53;19.63;;;13.13;;
26484;SDS011;18083;50.560;7.262;2023-03-01T08:59:21;22.23;;;13.63;;
26484;SDS011;18083;50.560;7.262;2023-03-01T09:01:48;19.93;;;13.20;;
26484;SDS011;18083;50.560;7.262;2023-03-01T09:04:15;19.47;;;13.17;;
26484;SDS011;18083;50.560;7.262;2023-03-01T09:06:43;23.20;;;13.27;;
26484;SDS011;18083;50.560;7.262;2023-03-01T09:09:12;21.93;;;14.10;;
26484;SDS011;18083;50.560;7.262;2023-03-01T09:11:41;20.40;;;12.97;;
26484;SDS011;18083;50.560;7.262;2023-03-01T09:14:09;20.03;;;13.57;;
26484;SDS011;18083;50.560;7.262;2023-03-01T09:16:36;17.93;;;13.30;;
26484;SDS011;18083;50.560;7.262;2023-03-01T09:19:03;24.10;;;13.90;;
26484;SDS011;18083;50.560;7.262;2023-03-01T09:21:31;21.07;;;13.10;;
26484;SDS011;18083;50.560;7.262;2023-03-01T09:23:58;23.23;;;14.13;;
26484;SDS011;18083;50.560;7.262;2023-03-01T09:31:58;18.77;;;13.13;;
26484;SDS011;18083;50.560;7.262;2023-03-01T09:34:26;21.63;;;13.57;;
26484;SDS011;18083;50.560;7.262;2023-03-01T09:36:54;22.10;;;12.70;;
26484;SDS011;18083;50.560;7.262;2023-03-01T09:39:21;22.87;;;12.83;;
26484;SDS011;18083;50.560;7.262;2023-03-01T09:44:34;18.07;;;12.53;;
26484;SDS011;18083;50.560;7.262;2023-03-01T09:47:01;21.43;;;13.60;;
26484;SDS011;18083;50.560;7.262;2023-03-01T09:49:36;26.03;;;13.37;;
26484;SDS011;18083;50.560;7.262;2023-03-01T09:52:03;22.77;;;12.77;;
26484;SDS011;18083;50.560;7.262;2023-03-01T09:54:29;17.17;;;12.57;;
26484;SDS011;18083;50.560;7.262;2023-03-01T09:57:04;20.73;;;13.70;;
26484;SDS011;18083;50.560;7.262;2023-03-01T09:59:40;21.90;;;13.67;;
26484;SDS011;18083;50.560;7.262;2023-03-01T10:02:23;17.27;;;12.13;;
26484;SDS011;18083;50.560;7.262;2023-03-01T10:04:54;21.63;;;13.17;;
26484;SDS011;18083;50.560;7.262;2023-03-01T10:09:59;24.07;;;14.50;;
26484;SDS011;18083;50.560;7.262;2023-03-01T10:12:35;21.50;;;15.33;;
26484;SDS011;18083;50.560;7.262;2023-03-01T10:15:19;20.30;;;14.60;;
26484;SDS011;18083;50.560;7.262;2023-03-01T10:17:57;21.10;;;13.33;;
26484;SDS011;18083;50.560;7.262;2023-03-01T10:20:26;20.40;;;13.47;;
26484;SDS011;18083;50.560;7.262;2023-03-01T10:22:54;29.83;;;14.53;;
26484;SDS011;18083;50.560;7.262;2023-03-01T10:25:26;22.80;;;12.47;;
26484;SDS011;18083;50.560;7.262;2023-03-01T10:27:54;18.80;;;13.23;;
26484;SDS011;18083;50.560;7.262;2023-03-01T10:30:33;24.03;;;13.73;;
26484;SDS011;18083;50.560;7.262;2023-03-01T10:32:51;19.73;;;12.50;;
26484;SDS011;18083;50.560;7.262;2023-03-01T10:35:21;24.23;;;13.23;;
26484;SDS011;18083;50.560;7.262;2023-03-01T10:38:04;22.63;;;13.40;;
26484;SDS011;18083;50.560;7.262;2023-03-01T10:40:32;19.83;;;12.67;;
26484;SDS011;18083;50.560;7.262;2023-03-01T10:43:04;17.13;;;12.73;;
26484;SDS011;18083;50.560;7.262;2023-03-01T10:45:33;20.47;;;14.13;;
26484;SDS011;18083;50.560;7.262;2023-03-01T10:48:20;16.40;;;11.80;;
26484;SDS011;18083;50.560;7.262;2023-03-01T10:50:51;22.73;;;13.73;;
26484;SDS011;18083;50.560;7.262;2023-03-01T10:53:20;21.50;;;13.33;;
26484;SDS011;18083;50.560;7.262;2023-03-01T10:55:47;20.27;;;13.17;;
26484;SDS011;18083;50.560;7.262;2023-03-01T10:58:19;19.00;;;13.07;;
26484;SDS011;18083;50.560;7.262;2023-03-01T11:03:18;20.60;;;12.73;;
26484;SDS011;18083;50.560;7.262;2023-03-01T11:06:28;17.37;;;11.50;;
26484;SDS011;18083;50.560;7.262;2023-03-01T11:08:31;15.50;;;10.63;;
26484;SDS011;18083;50.560;7.262;2023-03-01T11:11:05;16.95;;;11.50;;
26484;SDS011;18083;50.560;7.262;2023-03-01T11:13:33;17.73;;;11.27;;
26484;SDS011;18083;50.560;7.262;2023-03-01T11:16:05;24.12;;;13.18;;
26484;SDS011;18083;50.560;7.262;2023-03-01T11:18:32;18.23;;;11.60;;
26484;SDS011;18083;50.560;7.262;2023-03-01T11:21:00;22.63;;;11.60;;
26484;SDS011;18083;50.560;7.262;2023-03-01T11:23:28;17.43;;;12.20;;
26484;SDS011;18083;50.560;7.262;2023-03-01T11:25:56;17.77;;;11.83;;
26484;SDS011;18083;50.560;7.262;2023-03-01T11:28:25;14.23;;;10.37;;
26484;SDS011;18083;50.560;7.262;2023-03-01T11:30:55;18.98;;;11.55;;
26484;SDS011;18083;50.560;7.262;2023-03-01T11:33:34;16.50;;;11.17;;
26484;SDS011;18083;50.560;7.262;2023-03-01T11:36:01;17.80;;;11.63;;
26484;SDS011;18083;50.560;7.262;2023-03-01T11:38:29;20.95;;;12.25;;
26484;SDS011;18083;50.560;7.262;2023-03-01T11:41:08;16.75;;;10.63;;
26484;SDS011;18083;50.560;7.262;2023-03-01T11:51:05;16.75;;;11.78;;
26484;SDS011;18083;50.560;7.262;2023-03-01T11:53:39;28.60;;;12.87;;
26484;SDS011;18083;50.560;7.262;2023-03-01T11:56:15;17.55;;;12.00;;
26484;SDS011;18083;50.560;7.262;2023-03-01T11:58:45;13.18;;;10.32;;
26484;SDS011;18083;50.560;7.262;2023-03-01T12:01:15;23.55;;;10.35;;
26484;SDS011;18083;50.560;7.262;2023-03-01T12:06:35;19.95;;;12.18;;
26484;SDS011;18083;50.560;7.262;2023-03-01T12:14:42;20.62;;;10.03;;
26484;SDS011;18083;50.560;7.262;2023-03-01T12:17:26;15.33;;;9.93;;
26484;SDS011;18083;50.560;7.262;2023-03-01T12:22:24;17.25;;;9.83;;
26484;SDS011;18083;50.560;7.262;2023-03-01T12:25:04;15.40;;;9.28;;
26484;SDS011;18083;50.560;7.262;2023-03-01T12:35:44;18.73;;;9.28;;
26484;SDS011;18083;50.560;7.262;2023-03-01T12:38:15;15.53;;;9.30;;
26484;SDS011;18083;50.560;7.262;2023-03-01T12:43:28;16.50;;;9.03;;
26484;SDS011;18083;50.560;7.262;2023-03-01T12:46:06;21.23;;;9.28;;
26484;SDS011;18083;50.560;7.262;2023-03-01T12:48:48;10.53;;;7.50;;
26484;SDS011;18083;50.560;7.262;2023-03-01T12:51:15;13.43;;;7.78;;
26484;SDS011;18083;50.560;7.262;2023-03-01T12:53:47;14.07;;;8.18;;
26484;SDS011;18083;50.560;7.262;2023-03-01T12:56:14;15.30;;;9.85;;
26484;SDS011;18083;50.560;7.262;2023-03-01T12:58:46;11.78;;;8.85;;
26484;SDS011;18083;50.560;7.262;2023-03-01T13:03:55;15.58;;;9.33;;
26484;SDS011;18083;50.560;7.262;2023-03-01T13:06:32;13.30;;;6.80;;
26484;SDS011;18083;50.560;7.262;2023-03-01T13:09:00;12.88;;;7.30;;
26484;SDS011;18083;50.560;7.262;2023-03-01T13:11:27;9.35;;;7.28;;
26484;SDS011;18083;50.560;7.262;2023-03-01T13:14:36;9.53;;;7.45;;
26484;SDS011;18083;50.560;7.262;2023-03-01T13:19:12;9.95;;;6.72;;
26484;SDS011;18083;50.560;7.262;2023-03-01T13:21:38;10.58;;;8.15;;
26484;SDS011;18083;50.560;7.262;2023-03-01T13:24:23;9.33;;;7.33;;
26484;SDS011;18083;50.560;7.262;2023-03-01T13:26:46;10.55;;;6.87;;
26484;SDS011;18083;50.560;7.262;2023-03-01T13:29:03;13.30;;;7.60;;
26484;SDS011;18083;50.560;7.262;2023-03-01T13:34:03;10.50;;;6.95;;
26484;SDS011;18083;50.560;7.262;2023-03-01T13:39:02;10.63;;;7.50;;
26484;SDS011;18083;50.560;7.262;2023-03-01T13:46:49;11.65;;;6.90;;
26484;SDS011;18083;50.560;7.262;2023-03-01T13:49:18;8.75;;;6.30;;
26484;SDS011;18083;50.560;7.262;2023-03-01T13:51:47;9.60;;;6.53;;
26484;SDS011;18083;50.560;7.262;2023-03-01T13:54:15;8.38;;;5.58;;
26484;SDS011;18083;50.560;7.262;2023-03-01T13:56:43;6.78;;;5.40;;
26484;SDS011;18083;50.560;7.262;2023-03-01T13:59:15;7.83;;;6.15;;
26484;SDS011;18083;50.560;7.262;2023-03-01T14:01:42;11.48;;;6.28;;
26484;SDS011;18083;50.560;7.262;2023-03-01T14:04:18;8.55;;;6.87;;
26484;SDS011;18083;50.560;7.262;2023-03-01T14:06:44;23.77;;;7.62;;
26484;SDS011;18083;50.560;7.262;2023-03-01T14:11:59;10.08;;;6.87;;
26484;SDS011;18083;50.560;7.262;2023-03-01T14:14:29;12.13;;;6.60;;
26484;SDS011;18083;50.560;7.262;2023-03-01T14:17:09;14.10;;;6.53;;
26484;SDS011;18083;50.560;7.262;2023-03-01T14:19:34;11.05;;;6.95;;
26484;SDS011;18083;50.560;7.262;2023-03-01T14:24:31;12.93;;;7.60;;
26484;SDS011;18083;50.560;7.262;2023-03-01T14:27:04;8.53;;;6.08;;
26484;SDS011;18083;50.560;7.262;2023-03-01T14:29:35;8.95;;;6.05;;
26484;SDS011;18083;50.560;7.262;2023-03-01T14:32:18;9.90;;;5.78;;
26484;SDS011;18083;50.560;7.262;2023-03-01T14:34:47;7.58;;;5.92;;
26484;SDS011;18083;50.560;7.262;2023-03-01T14:37:19;12.73;;;6.90;;
26484;SDS011;18083;50.560;7.262;2023-03-01T14:39:47;9.40;;;6.42;;
26484;SDS011;18083;50.560;7.262;2023-03-01T14:42:14;11.97;;;7.00;;
26484;SDS011;18083;50.560;7.262;2023-03-01T14:44:42;8.05;;;5.67;;
26484;SDS011;18083;50.560;7.262;2023-03-01T14:47:16;24.18;;;7.30;;
26484;SDS011;18083;50.560;7.262;2023-03-01T14:49:39;10.30;;;6.50;;
26484;SDS011;18083;50.560;7.262;2023-03-01T14:52:16;7.67;;;4.95;;
26484;SDS011;18083;50.560;7.262;2023-03-01T14:54:40;6.87;;;4.65;;
26484;SDS011;18083;50.560;7.262;2023-03-01T14:57:15;20.92;;;6.50;;
26484;SDS011;18083;50.560;7.262;2023-03-01T14:59:42;8.03;;;5.78;;
26484;SDS011;18083;50.560;7.262;2023-03-01T15:02:18;10.90;;;5.80;;
26484;SDS011;18083;50.560;7.262;2023-03-01T15:04:45;13.10;;;6.90;;
26484;SDS011;18083;50.560;7.262;2023-03-01T15:07:12;10.03;;;6.22;;
26484;SDS011;18083;50.560;7.262;2023-03-01T15:09:40;9.33;;;6.27;;
26484;SDS011;18083;50.560;7.262;2023-03-01T15:14:54;16.00;;;6.70;;
26484;SDS011;18083;50.560;7.262;2023-03-01T15:19:56;11.33;;;6.03;;
26484;SDS011;18083;50.560;7.262;2023-03-01T15:22:25;14.53;;;6.30;;
26484;SDS011;18083;50.560;7.262;2023-03-01T15:24:53;12.40;;;5.77;;
26484;SDS011;18083;50.560;7.262;2023-03-01T15:27:21;25.23;;;8.17;;
26484;SDS011;18083;50.560;7.262;2023-03-01T15:29:53;10.00;;;4.73;;
26484;SDS011;18083;50.560;7.262;2023-03-01T15:32:35;6.43;;;4.37;;
26484;SDS011;18083;50.560;7.262;2023-03-01T15:34:59;10.33;;;5.33;;
26484;SDS011;18083;50.560;7.262;2023-03-01T15:37:45;9.27;;;4.50;;
26484;SDS011;18083;50.560;7.262;2023-03-01T15:42:47;18.10;;;9.50;;
26484;SDS011;18083;50.560;7.262;2023-03-01T15:47:53;5.00;;;4.13;;
26484;SDS011;18083;50.560;7.262;2023-03-01T15:52:52;9.23;;;5.67;;
26484;SDS011;18083;50.560;7.262;2023-03-01T16:00:38;12.90;;;5.33;;
26484;SDS011;18083;50.560;7.262;2023-03-01T16:03:05;8.53;;;4.50;;
26484;SDS011;18083;50.560;7.262;2023-03-01T16:05:35;8.60;;;5.20;;
26484;SDS011;18083;50.560;7.262;2023-03-01T16:08:04;16.53;;;8.00;;
26484;SDS011;18083;50.560;7.262;2023-03-01T16:10:35;11.83;;;6.13;;
26484;SDS011;18083;50.560;7.262;2023-03-01T16:13:02;19.40;;;7.77;;
26484;SDS011;18083;50.560;7.262;2023-03-01T16:15:31;8.40;;;4.73;;
26484;SDS011;18083;50.560;7.262;2023-03-01T16:18:00;7.50;;;4.77;;
26484;SDS011;18083;50.560;7.262;2023-03-01T16:20:28;16.47;;;6.00;;